Time;durP1;ratioP1;P1;durP2;ratioP2;P2;SDS_P1;SDS_P2;PMS_P1;PMS_P2;Temp;Humidity;BMP_temperature;BMP_pressure;BME280_temperature;BME280_humidity;BME280_pressure;Samples;Min_cycle;Max_cycle;Signal;HPM_P1;HPM_P2
2021/05/31 00:00:19;;;;;;;6.18;3.28;;;;;;;;;;5026225;28;20036;-49
2021/05/31 00:02:46;;;;;;;3.35;2.55;;;;;;;;;;5007324;28;20037;-51
2021/05/31 00:05:12;;;;;;;6.05;2.92;;;;;;;;;;5016475;28;20025;-50
2021/05/31 00:07:38;;;;;;;7.55;3.20;;;;;;;;;;5016041;28;20080;-48
2021/05/31 00:10:05;;;;;;;6.55;3.35;;;;;;;;;;5025773;28;20504;-52
2021/05/31 00:12:31;;;;;;;4.53;2.83;;;;;;;;;;5026136;28;20117;-49
2021/05/31 00:14:57;;;;;;;5.47;2.90;;;;;;;;;;5031671;28;20041;-48
2021/05/31 00:17:25;;;;;;;4.97;3.00;;;;;;;;;;5031899;28;20084;-49
2021/05/31 00:19:52;;;;;;;5.18;3.08;;;;;;;;;;5017756;28;20111;-48
2021/05/31 00:22:19;;;;;;;5.82;2.67;;;;;;;;;;5022726;28;20030;-50
2021/05/31 00:24:46;;;;;;;4.30;2.80;;;;;;;;;;5012914;28;20021;-48
2021/05/31 00:27:12;;;;;;;5.63;3.13;;;;;;;;;;5013406;28;20021;-48
2021/05/31 00:29:38;;;;;;;3.85;2.47;;;;;;;;;;5015514;28;20180;-49
2021/05/31 00:32:04;;;;;;;4.72;2.88;;;;;;;;;;5028025;28;20053;-49
2021/05/31 00:34:30;;;;;;;5.30;2.80;;;;;;;;;;5027124;28;20033;-48
2021/05/31 00:36:56;;;;;;;4.82;2.70;;;;;;;;;;5023262;28;20061;-49
2021/05/31 00:39:23;;;;;;;3.97;2.90;;;;;;;;;;5031855;28;20044;-49
2021/05/31 00:41:51;;;;;;;5.90;3.33;;;;;;;;;;5031459;28;20028;-48
2021/05/31 00:44:17;;;;;;;7.75;3.00;;;;;;;;;;5030991;28;20396;-48
2021/05/31 00:46:43;;;;;;;4.85;2.97;;;;;;;;;;5023716;28;20126;-48
2021/05/31 00:49:09;;;;;;;5.38;2.97;;;;;;;;;;5025010;28;20118;-48
2021/05/31 00:51:35;;;;;;;8.35;3.35;;;;;;;;;;5025872;28;20514;-49
2021/05/31 00:54:01;;;;;;;7.03;3.28;;;;;;;;;;5021303;28;20026;-48
2021/05/31 00:56:28;;;;;;;5.57;3.40;;;;;;;;;;5022494;28;20026;-48
2021/05/31 00:58:54;;;;;;;5.75;3.28;;;;;;;;;;5024761;28;20461;-48
2021/05/31 01:01:21;;;;;;;4.65;2.72;;;;;;;;;;5012994;28;20160;-48
2021/05/31 01:03:47;;;;;;;5.45;2.95;;;;;;;;;;5019771;28;20033;-48
2021/05/31 01:06:16;;;;;;;5.55;3.08;;;;;;;;;;5023862;28;20025;-51
2021/05/31 01:08:46;;;;;;;5.80;2.70;;;;;;;;;;5019030;28;20033;-49
2021/05/31 01:11:14;;;;;;;5.18;2.97;;;;;;;;;;5033305;28;20099;-48
2021/05/31 01:13:45;;;;;;;4.15;2.70;;;;;;;;;;5021065;28;20373;-49
2021/05/31 01:16:14;;;;;;;8.18;3.13;;;;;;;;;;5035895;28;20122;-48
2021/05/31 01:18:41;;;;;;;5.40;2.90;;;;;;;;;;5033626;28;20112;-49
2021/05/31 01:21:26;;;;;;;5.25;2.70;;;;;;;;;;5035185;28;20022;-48
2021/05/31 01:23:57;;;;;;;5.47;3.13;;;;;;;;;;5021139;28;20026;-48
2021/05/31 01:26:25;;;;;;;3.28;2.55;;;;;;;;;;5020343;28;20030;-48
2021/05/31 01:29:00;;;;;;;5.28;3.42;;;;;;;;;;5015617;28;20184;-48
2021/05/31 01:31:31;;;;;;;8.80;3.55;;;;;;;;;;5029932;28;20128;-48
2021/05/31 01:33:57;;;;;;;5.68;2.95;;;;;;;;;;5017590;28;20038;-48
2021/05/31 01:36:24;;;;;;;4.60;2.97;;;;;;;;;;5018007;28;20038;-50
2021/05/31 01:38:50;;;;;;;6.97;3.25;;;;;;;;;;5020729;28;20041;-51
2021/05/31 01:41:17;;;;;;;6.65;3.10;;;;;;;;;;5018078;28;20517;-48
2021/05/31 01:43:44;;;;;;;5.03;2.72;;;;;;;;;;5016425;28;20061;-48
2021/05/31 01:46:10;;;;;;;5.78;3.15;;;;;;;;;;5030786;28;20032;-50
2021/05/31 01:48:37;;;;;;;6.72;3.40;;;;;;;;;;5026936;28;20025;-50
2021/05/31 01:51:03;;;;;;;5.57;3.35;;;;;;;;;;5035152;28;20055;-49
2021/05/31 01:53:29;;;;;;;3.85;2.90;;;;;;;;;;5020077;28;20034;-49
2021/05/31 01:55:56;;;;;;;4.88;3.35;;;;;;;;;;5024631;28;20064;-48
2021/05/31 01:58:22;;;;;;;4.75;3.28;;;;;;;;;;5014628;28;20076;-48
2021/05/31 02:00:48;;;;;;;5.20;3.03;;;;;;;;;;5017635;28;20086;-48
2021/05/31 02:03:14;;;;;;;5.00;3.33;;;;;;;;;;5015027;28;20065;-49
2021/05/31 02:05:40;;;;;;;5.53;3.20;;;;;;;;;;5017668;28;20029;-48
2021/05/31 02:08:06;;;;;;;5.47;3.33;;;;;;;;;;5028286;28;20033;-48
2021/05/31 02:10:32;;;;;;;6.13;3.25;;;;;;;;;;5023597;28;20517;-50
2021/05/31 02:13:00;;;;;;;6.05;2.88;;;;;;;;;;5034555;28;20569;-48
2021/05/31 02:15:44;;;;;;;4.80;3.67;;;;;;;;;;5022362;28;20029;-49
2021/05/31 02:18:23;;;;;;;6.57;3.50;;;;;;;;;;5008179;28;20044;-49
2021/05/31 02:20:51;;;;;;;5.07;3.28;;;;;;;;;;5012341;28;20032;-48
2021/05/31 02:23:17;;;;;;;4.90;3.40;;;;;;;;;;5021579;28;20132;-48
2021/05/31 02:25:43;;;;;;;5.18;3.53;;;;;;;;;;5022566;28;20105;-48
2021/05/31 02:28:09;;;;;;;5.32;3.38;;;;;;;;;;5019592;28;20478;-48
2021/05/31 02:30:35;;;;;;;7.32;3.10;;;;;;;;;;5022831;28;20127;-48
2021/05/31 02:33:03;;;;;;;5.65;3.38;;;;;;;;;;5028238;28;20108;-48
2021/05/31 02:35:30;;;;;;;6.70;3.53;;;;;;;;;;5022101;28;20033;-48
2021/05/31 02:37:57;;;;;;;5.90;3.65;;;;;;;;;;5028304;28;20040;-48
2021/05/31 02:40:23;;;;;;;5.55;3.42;;;;;;;;;;5025313;28;20030;-48
2021/05/31 02:42:51;;;;;;;6.15;3.78;;;;;;;;;;5033372;28;20072;-48
2021/05/31 02:45:17;;;;;;;5.18;3.28;;;;;;;;;;5029707;28;20053;-48
2021/05/31 02:47:44;;;;;;;6.70;3.85;;;;;;;;;;5027542;28;20029;-48
2021/05/31 02:50:11;;;;;;;5.35;3.28;;;;;;;;;;5019809;28;20034;-48
2021/05/31 02:52:40;;;;;;;7.97;3.60;;;;;;;;;;5015201;28;20034;-49
2021/05/31 02:55:08;;;;;;;9.80;3.50;;;;;;;;;;5014481;28;20030;-49
2021/05/31 02:57:34;;;;;;;4.88;3.38;;;;;;;;;;5019323;28;20105;-48
2021/05/31 03:00:00;;;;;;;6.63;3.92;;;;;;;;;;5023127;28;20022;-48
2021/05/31 03:02:26;;;;;;;5.90;3.53;;;;;;;;;;5014977;28;20029;-49
2021/05/31 03:04:52;;;;;;;5.90;3.75;;;;;;;;;;5024144;28;20096;-48
2021/05/31 03:07:18;;;;;;;5.25;3.60;;;;;;;;;;5024177;28;20052;-48
2021/05/31 03:09:44;;;;;;;6.53;3.70;;;;;;;;;;5023098;28;20038;-48
2021/05/31 03:12:11;;;;;;;8.02;3.80;;;;;;;;;;5029986;28;20044;-48
2021/05/31 03:14:37;;;;;;;5.35;3.65;;;;;;;;;;5022680;28;20036;-48
2021/05/31 03:17:03;;;;;;;5.30;3.63;;;;;;;;;;5029382;28;20033;-48
2021/05/31 03:19:29;;;;;;;8.88;4.10;;;;;;;;;;5021826;28;20092;-48
2021/05/31 03:21:55;;;;;;;6.15;4.10;;;;;;;;;;5027716;28;20044;-48
2021/05/31 03:24:21;;;;;;;6.15;4.43;;;;;;;;;;5014965;28;20029;-48
2021/05/31 03:26:47;;;;;;;5.35;3.63;;;;;;;;;;5015445;28;20424;-48
2021/05/31 03:29:13;;;;;;;6.68;4.00;;;;;;;;;;5020870;28;20029;-48
2021/05/31 03:31:39;;;;;;;5.88;3.60;;;;;;;;;;5017514;28;20057;-48
2021/05/31 03:34:05;;;;;;;6.07;3.47;;;;;;;;;;5014826;28;20438;-48
2021/05/31 03:36:31;;;;;;;4.95;3.33;;;;;;;;;;5029276;28;20056;-50
2021/05/31 03:38:58;;;;;;;9.38;4.00;;;;;;;;;;5013025;28;20049;-48
2021/05/31 03:41:24;;;;;;;5.07;3.80;;;;;;;;;;5021288;28;20389;-51
2021/05/31 03:43:50;;;;;;;8.55;4.00;;;;;;;;;;5024668;28;20029;-49
2021/05/31 03:46:16;;;;;;;5.57;3.60;;;;;;;;;;5026150;28;20037;-48
2021/05/31 03:48:42;;;;;;;7.47;3.13;;;;;;;;;;5023014;28;20041;-48
2021/05/31 03:51:08;;;;;;;7.60;3.88;;;;;;;;;;5031852;28;20037;-48
2021/05/31 03:53:36;;;;;;;6.00;4.00;;;;;;;;;;5020904;28;20022;-48
2021/05/31 03:56:02;;;;;;;9.30;4.30;;;;;;;;;;5029076;28;20112;-49
2021/05/31 03:58:28;;;;;;;8.13;3.88;;;;;;;;;;5022863;28;20436;-48
2021/05/31 04:00:54;;;;;;;6.38;4.18;;;;;;;;;;5018348;28;20022;-48
2021/05/31 04:03:20;;;;;;;8.20;4.28;;;;;;;;;;5015054;28;20072;-48
2021/05/31 04:06:04;;;;;;;7.50;3.67;;;;;;;;;;5028947;28;20053;-48
2021/05/31 04:14:01;;;;;;;6.93;3.88;;;;;;;;;;5029119;28;20539;-49
2021/05/31 04:16:27;;;;;;;5.93;3.95;;;;;;;;;;5012165;28;20057;-48
2021/05/31 04:18:53;;;;;;;7.97;4.40;;;;;;;;;;5022256;28;20515;-48
2021/05/31 04:21:19;;;;;;;11.05;3.95;;;;;;;;;;5020753;28;20030;-48
2021/05/31 04:23:45;;;;;;;8.35;4.10;;;;;;;;;;5012454;28;20038;-48
2021/05/31 04:26:11;;;;;;;10.73;3.92;;;;;;;;;;5002858;28;20030;-48
2021/05/31 04:28:37;;;;;;;7.90;4.35;;;;;;;;;;5012647;28;20038;-50
2021/05/31 04:31:03;;;;;;;8.18;3.83;;;;;;;;;;5012465;28;20073;-48
2021/05/31 04:33:29;;;;;;;8.15;3.80;;;;;;;;;;5012917;28;20045;-49
2021/05/31 04:35:55;;;;;;;6.90;3.92;;;;;;;;;;5012766;28;20042;-49
2021/05/31 04:38:21;;;;;;;6.72;3.97;;;;;;;;;;5011755;28;20067;-49
2021/05/31 04:40:47;;;;;;;8.07;4.07;;;;;;;;;;5012998;28;20041;-48
2021/05/31 04:43:13;;;;;;;8.23;4.13;;;;;;;;;;5011434;28;20377;-48
2021/05/31 04:45:39;;;;;;;7.72;4.20;;;;;;;;;;5018107;28;20105;-49
2021/05/31 04:48:05;;;;;;;7.70;3.85;;;;;;;;;;5018725;28;20044;-48
2021/05/31 04:50:31;;;;;;;9.52;3.85;;;;;;;;;;5024138;28;20087;-50
2021/05/31 04:52:57;;;;;;;8.07;4.00;;;;;;;;;;5024568;28;20513;-50
2021/05/31 04:55:23;;;;;;;8.02;3.97;;;;;;;;;;5022435;28;20042;-49
2021/05/31 04:57:49;;;;;;;7.82;3.92;;;;;;;;;;5021567;28;20034;-48
2021/05/31 05:00:16;;;;;;;7.88;4.15;;;;;;;;;;5018165;28;20026;-48
2021/05/31 05:02:42;;;;;;;8.98;4.00;;;;;;;;;;5017857;28;20025;-48
2021/05/31 05:05:09;;;;;;;8.55;4.03;;;;;;;;;;5019079;28;20030;-50
2021/05/31 05:07:35;;;;;;;10.32;4.95;;;;;;;;;;5011449;28;20062;-49
2021/05/31 05:10:01;;;;;;;9.57;4.93;;;;;;;;;;5024531;28;20033;-49
2021/05/31 05:12:26;;;;;;;8.02;4.00;;;;;;;;;;5019815;28;20386;-49
2021/05/31 05:14:52;;;;;;;9.15;4.55;;;;;;;;;;5022635;28;20022;-49
2021/05/31 05:17:18;;;;;;;6.63;4.45;;;;;;;;;;5020461;28;20034;-48
2021/05/31 05:19:45;;;;;;;11.23;5.30;;;;;;;;;;5015309;28;20081;-48
2021/05/31 05:22:11;;;;;;;7.10;4.80;;;;;;;;;;5011699;28;20168;-48
2021/05/31 05:24:37;;;;;;;7.13;4.78;;;;;;;;;;5012534;28;20030;-51
2021/05/31 05:27:05;;;;;;;11.48;5.00;;;;;;;;;;5011543;28;20022;-48
2021/05/31 05:29:32;;;;;;;11.05;5.28;;;;;;;;;;5011606;28;20033;-48
2021/05/31 05:32:01;;;;;;;8.93;5.55;;;;;;;;;;5013125;28;20084;-50
2021/05/31 05:34:27;;;;;;;13.15;5.45;;;;;;;;;;5022740;28;20030;-48
2021/05/31 05:36:56;;;;;;;12.48;5.25;;;;;;;;;;5009980;28;20037;-49
2021/05/31 05:39:43;;;;;;;11.77;6.00;;;;;;;;;;5009216;28;20352;-48
2021/05/31 05:45:21;;;;;;;10.93;4.88;;;;;;;;;;5008718;28;20028;-51
2021/05/31 05:47:47;;;;;;;13.43;5.60;;;;;;;;;;5011577;28;20160;-49
2021/05/31 05:50:22;;;;;;;10.23;5.30;;;;;;;;;;5008346;28;20452;-49
2021/05/31 05:52:48;;;;;;;9.23;5.72;;;;;;;;;;5022669;28;20079;-48
2021/05/31 05:55:15;;;;;;;8.85;5.10;;;;;;;;;;5023754;28;20079;-48
2021/05/31 05:57:41;;;;;;;10.45;5.20;;;;;;;;;;5013591;28;20030;-50
2021/05/31 06:00:12;;;;;;;12.18;5.05;;;;;;;;;;5013366;28;20033;-49
2021/05/31 06:02:38;;;;;;;11.50;5.32;;;;;;;;;;5022776;28;20109;-47
2021/05/31 06:05:04;;;;;;;9.70;5.50;;;;;;;;;;5021549;28;20018;-48
2021/05/31 06:07:30;;;;;;;11.48;4.78;;;;;;;;;;5016712;28;20462;-48
2021/05/31 06:09:56;;;;;;;10.40;5.07;;;;;;;;;;5022836;28;20033;-50
2021/05/31 06:12:22;;;;;;;10.20;5.38;;;;;;;;;;5034819;28;20025;-48
2021/05/31 06:14:48;;;;;;;9.20;4.35;;;;;;;;;;5026442;28;20033;-48
2021/05/31 06:17:14;;;;;;;12.52;4.68;;;;;;;;;;5017742;28;20489;-48
2021/05/31 06:19:40;;;;;;;8.18;3.95;;;;;;;;;;5024870;28;20088;-49
2021/05/31 06:22:06;;;;;;;8.13;4.47;;;;;;;;;;5030278;28;20029;-49
2021/05/31 06:24:32;;;;;;;9.48;4.43;;;;;;;;;;5033923;28;20022;-48
2021/05/31 06:26:58;;;;;;;7.82;4.50;;;;;;;;;;5020486;28;20033;-49
2021/05/31 06:29:25;;;;;;;9.80;4.82;;;;;;;;;;5017172;28;20401;-48
2021/05/31 06:31:51;;;;;;;8.60;4.35;;;;;;;;;;5017070;28;20050;-49
2021/05/31 06:34:17;;;;;;;9.25;4.82;;;;;;;;;;5022219;28;20385;-48
2021/05/31 06:36:43;;;;;;;6.88;4.20;;;;;;;;;;5017689;28;20041;-48
2021/05/31 06:39:11;;;;;;;10.80;3.90;;;;;;;;;;5017209;28;20037;-48
2021/05/31 06:41:37;;;;;;;7.55;4.15;;;;;;;;;;5025194;28;20104;-48
2021/05/31 06:44:03;;;;;;;8.57;4.00;;;;;;;;;;5018282;28;20381;-48
2021/05/31 06:46:30;;;;;;;10.00;4.03;;;;;;;;;;5008777;28;20049;-49
2021/05/31 06:48:56;;;;;;;8.20;3.65;;;;;;;;;;5016894;28;20025;-49
2021/05/31 06:51:22;;;;;;;10.38;4.95;;;;;;;;;;5025070;28;20465;-48
2021/05/31 06:53:48;;;;;;;5.43;3.90;;;;;;;;;;5018045;28;20088;-48
2021/05/31 06:56:16;;;;;;;10.05;4.28;;;;;;;;;;5025419;28;20025;-48
2021/05/31 06:58:42;;;;;;;9.30;4.40;;;;;;;;;;5033414;28;20025;-48
2021/05/31 07:01:10;;;;;;;7.88;3.85;;;;;;;;;;5016935;28;20033;-49
2021/05/31 07:03:36;;;;;;;6.05;3.22;;;;;;;;;;5022572;28;20032;-49
2021/05/31 07:06:02;;;;;;;9.82;3.60;;;;;;;;;;5013811;28;20462;-49
2021/05/31 07:08:30;;;;;;;6.78;3.58;;;;;;;;;;5014540;28;20484;-49
2021/05/31 07:10:57;;;;;;;6.53;3.20;;;;;;;;;;5019667;28;20022;-48
2021/05/31 07:13:24;;;;;;;8.20;3.80;;;;;;;;;;5006633;28;20034;-49
2021/05/31 07:15:54;;;;;;;6.82;3.15;;;;;;;;;;5028131;28;20040;-49
2021/05/31 07:18:20;;;;;;;7.40;3.78;;;;;;;;;;5017731;28;20026;-51
2021/05/31 07:20:48;;;;;;;7.90;2.88;;;;;;;;;;5018832;28;20029;-48
2021/05/31 07:23:14;;;;;;;12.88;3.35;;;;;;;;;;5007227;28;20056;-49
2021/05/31 07:25:40;;;;;;;6.97;3.67;;;;;;;;;;5014409;28;20038;-47
2021/05/31 07:28:06;;;;;;;7.18;3.60;;;;;;;;;;5018525;28;20490;-46
2021/05/31 07:30:32;;;;;;;8.40;3.50;;;;;;;;;;5019769;28;20556;-46
2021/05/31 07:32:58;;;;;;;6.88;3.10;;;;;;;;;;5032851;28;20048;-47
2021/05/31 07:35:24;;;;;;;9.13;3.72;;;;;;;;;;5017483;28;20448;-47
2021/05/31 07:37:50;;;;;;;9.85;3.30;;;;;;;;;;5020482;28;20033;-48
2021/05/31 07:40:17;;;;;;;5.47;3.13;;;;;;;;;;5017551;28;20044;-47
2021/05/31 07:42:43;;;;;;;6.55;3.03;;;;;;;;;;5021225;28;20410;-48
2021/05/31 07:45:10;;;;;;;7.85;3.25;;;;;;;;;;5024084;28;20410;-47
2021/05/31 07:47:36;;;;;;;10.13;3.42;;;;;;;;;;5015358;28;20025;-48
2021/05/31 07:50:03;;;;;;;9.57;3.28;;;;;;;;;;5025835;28;20458;-48
2021/05/31 07:52:29;;;;;;;5.95;2.92;;;;;;;;;;5019478;28;20033;-47
2021/05/31 07:54:56;;;;;;;8.98;2.65;;;;;;;;;;5011400;28;20461;-48
2021/05/31 07:57:22;;;;;;;7.45;2.58;;;;;;;;;;5021101;28;20112;-48
2021/05/31 07:59:48;;;;;;;6.78;2.63;;;;;;;;;;5017512;28;20105;-49
2021/05/31 08:02:15;;;;;;;6.28;3.42;;;;;;;;;;5024272;28;20022;-48
2021/05/31 08:04:41;;;;;;;6.55;2.83;;;;;;;;;;5030332;28;20021;-49
2021/05/31 08:07:08;;;;;;;8.00;2.97;;;;;;;;;;5017128;28;20030;-48
2021/05/31 08:09:35;;;;;;;9.32;3.38;;;;;;;;;;5026228;28;20114;-48
2021/05/31 08:12:01;;;;;;;11.05;3.47;;;;;;;;;;5001587;28;20041;-49
2021/05/31 08:14:27;;;;;;;10.93;3.35;;;;;;;;;;5024885;28;20040;-49
2021/05/31 08:16:53;;;;;;;9.05;3.22;;;;;;;;;;5014922;28;20037;-50
2021/05/31 08:19:20;;;;;;;6.65;3.15;;;;;;;;;;5022513;28;20936;-48
2021/05/31 08:21:46;;;;;;;13.88;4.90;;;;;;;;;;5010674;28;20504;-48
2021/05/31 08:24:12;;;;;;;6.13;3.15;;;;;;;;;;5013495;28;20049;-47
2021/05/31 08:26:38;;;;;;;11.90;3.67;;;;;;;;;;5021344;28;20057;-47
2021/05/31 08:29:04;;;;;;;9.10;3.65;;;;;;;;;;5024950;28;20050;-48
2021/05/31 08:31:31;;;;;;;7.15;3.45;;;;;;;;;;5024044;28;20462;-47
2021/05/31 08:33:57;;;;;;;6.45;3.22;;;;;;;;;;5009214;28;20359;-48
2021/05/31 08:36:23;;;;;;;7.00;3.13;;;;;;;;;;5004545;28;20508;-49
2021/05/31 08:38:50;;;;;;;6.97;2.70;;;;;;;;;;5010484;28;20121;-47
2021/05/31 08:41:17;;;;;;;7.90;3.22;;;;;;;;;;5014744;28;20080;-48
2021/05/31 08:43:43;;;;;;;6.30;2.60;;;;;;;;;;5014514;28;20515;-51
2021/05/31 08:46:09;;;;;;;7.80;2.75;;;;;;;;;;5024341;28;20052;-49
2021/05/31 08:48:34;;;;;;;5.53;2.33;;;;;;;;;;5031524;28;20017;-47
2021/05/31 08:51:01;;;;;;;6.97;3.05;;;;;;;;;;5013631;28;20038;-47
2021/05/31 08:53:27;;;;;;;6.22;2.72;;;;;;;;;;5016154;28;20040;-49
2021/05/31 08:55:53;;;;;;;4.20;1.88;;;;;;;;;;5031709;28;20026;-47
2021/05/31 08:58:19;;;;;;;5.97;2.20;;;;;;;;;;5024741;28;20066;-50
2021/05/31 09:00:45;;;;;;;7.03;2.38;;;;;;;;;;5026591;28;20080;-47
2021/05/31 09:03:11;;;;;;;3.75;2.20;;;;;;;;;;5029296;28;20044;-48
2021/05/31 09:05:39;;;;;;;7.80;3.03;;;;;;;;;;5020868;28;20440;-48
2021/05/31 09:08:10;;;;;;;6.88;2.50;;;;;;;;;;5018352;28;20025;-49
2021/05/31 09:10:43;;;;;;;4.18;2.65;;;;;;;;;;5016811;28;20075;-47
2021/05/31 09:13:09;;;;;;;2.80;1.80;;;;;;;;;;5031218;28;20037;-47
2021/05/31 09:15:35;;;;;;;6.60;2.50;;;;;;;;;;5024525;28;20030;-47
2021/05/31 09:18:01;;;;;;;4.93;2.25;;;;;;;;;;5011788;28;20044;-47
2021/05/31 09:20:27;;;;;;;5.25;2.30;;;;;;;;;;5018454;28;20025;-47
2021/05/31 09:22:55;;;;;;;4.93;2.58;;;;;;;;;;5031728;28;20022;-47
2021/05/31 09:25:30;;;;;;;6.38;2.08;;;;;;;;;;5007812;28;20466;-48
2021/05/31 09:27:57;;;;;;;5.10;1.73;;;;;;;;;;5011116;28;20022;-46
2021/05/31 09:30:37;;;;;;;3.83;1.60;;;;;;;;;;5015640;28;20443;-46
2021/05/31 09:33:03;;;;;;;6.18;2.63;;;;;;;;;;5027245;28;20030;-46
2021/05/31 09:35:29;;;;;;;5.20;2.05;;;;;;;;;;5027330;28;20026;-46
2021/05/31 09:38:00;;;;;;;3.33;2.08;;;;;;;;;;5022097;28;20025;-47
2021/05/31 09:40:26;;;;;;;5.80;2.15;;;;;;;;;;5025192;28;20033;-47
2021/05/31 09:42:56;;;;;;;3.97;2.45;;;;;;;;;;5035467;28;20026;-48
2021/05/31 09:45:23;;;;;;;3.42;1.73;;;;;;;;;;5024903;28;20030;-46
2021/05/31 09:47:49;;;;;;;4.00;2.30;;;;;;;;;;5032370;28;20028;-46
2021/05/31 09:50:25;;;;;;;5.10;2.13;;;;;;;;;;5019781;28;20034;-46
2021/05/31 09:53:02;;;;;;;5.10;2.40;;;;;;;;;;5029088;28;20030;-47
2021/05/31 09:55:31;;;;;;;4.28;2.10;;;;;;;;;;5034653;28;20033;-48
2021/05/31 09:57:57;;;;;;;4.53;2.15;;;;;;;;;;5032809;28;20469;-46
2021/05/31 10:00:28;;;;;;;4.93;2.38;;;;;;;;;;5034879;28;20025;-46
2021/05/31 10:03:03;;;;;;;3.53;1.85;;;;;;;;;;5010236;28;20049;-46
2021/05/31 10:05:42;;;;;;;7.55;2.30;;;;;;;;;;5030647;28;20032;-47
2021/05/31 10:08:40;;;;;;;2.97;2.05;;;;;;;;;;5019733;28;20462;-46
2021/05/31 10:10:57;;;;;;;6.82;2.30;;;;;;;;;;5015703;28;20045;-47
2021/05/31 10:13:24;;;;;;;5.45;2.72;;;;;;;;;;5016350;28;20033;-47
2021/05/31 10:15:51;;;;;;;5.05;2.38;;;;;;;;;;5024749;28;20037;-46
2021/05/31 10:18:17;;;;;;;6.32;2.20;;;;;;;;;;5029616;28;20025;-46
2021/05/31 10:20:44;;;;;;;4.10;2.30;;;;;;;;;;5034395;28;20026;-46
2021/05/31 10:23:11;;;;;;;8.10;2.15;;;;;;;;;;5034658;28;20350;-46
2021/05/31 10:25:40;;;;;;;2.47;1.60;;;;;;;;;;5021863;28;20104;-46
2021/05/31 10:28:08;;;;;;;4.22;2.35;;;;;;;;;;5019509;28;20034;-50
2021/05/31 10:30:54;;;;;;;4.60;1.80;;;;;;;;;;5012316;28;20144;-47
2021/05/31 10:33:21;;;;;;;3.95;1.90;;;;;;;;;;5011699;28;20046;-48
2021/05/31 10:35:48;;;;;;;6.07;2.38;;;;;;;;;;5016065;28;20029;-48
2021/05/31 10:38:24;;;;;;;2.75;1.70;;;;;;;;;;5010377;28;20022;-50
2021/05/31 10:40:53;;;;;;;4.15;2.05;;;;;;;;;;5018034;28;20033;-49
2021/05/31 10:43:21;;;;;;;6.13;1.75;;;;;;;;;;5019658;28;20113;-50
2021/05/31 10:45:48;;;;;;;3.75;1.67;;;;;;;;;;5014506;28;20618;-50
2021/05/31 10:48:21;;;;;;;4.25;1.73;;;;;;;;;;5018199;28;20076;-50
2021/05/31 10:50:53;;;;;;;4.97;1.50;;;;;;;;;;5015042;28;20084;-50
2021/05/31 10:53:20;;;;;;;3.20;1.67;;;;;;;;;;5018011;28;20519;-47
2021/05/31 10:55:56;;;;;;;5.40;1.98;;;;;;;;;;5028089;28;20401;-49
2021/05/31 10:58:25;;;;;;;2.75;1.55;;;;;;;;;;5013321;28;20100;-47
2021/05/31 11:00:54;;;;;;;4.18;1.50;;;;;;;;;;5025448;28;20026;-51
2021/05/31 11:03:20;;;;;;;4.97;2.00;;;;;;;;;;5024195;28;20049;-49
2021/05/31 11:05:46;;;;;;;3.67;1.60;;;;;;;;;;5019398;28;20059;-47
2021/05/31 11:08:23;;;;;;;4.80;1.50;;;;;;;;;;5017869;28;20544;-48
2021/05/31 11:10:54;;;;;;;8.15;1.92;;;;;;;;;;5009669;28;20038;-51
2021/05/31 11:13:20;;;;;;;5.50;2.00;;;;;;;;;;5014147;28;20084;-48
2021/05/31 11:15:46;;;;;;;3.88;1.70;;;;;;;;;;5013005;28;20696;-49
2021/05/31 11:18:22;;;;;;;3.15;1.60;;;;;;;;;;5018686;28;20038;-50
2021/05/31 11:20:48;;;;;;;3.53;1.80;;;;;;;;;;5015858;28;20478;-51
2021/05/31 11:23:14;;;;;;;4.10;1.45;;;;;;;;;;5012351;28;20076;-48
2021/05/31 11:25:40;;;;;;;3.30;1.20;;;;;;;;;;5009391;28;20482;-50
2021/05/31 11:28:06;;;;;;;3.25;1.70;;;;;;;;;;5016799;28;20037;-48
2021/05/31 11:30:33;;;;;;;4.25;1.60;;;;;;;;;;5012425;28;20093;-47
2021/05/31 11:33:00;;;;;;;6.90;1.88;;;;;;;;;;5020817;28;20030;-51
2021/05/31 11:35:27;;;;;;;5.43;1.40;;;;;;;;;;5017579;28;20049;-51
2021/05/31 11:37:54;;;;;;;3.60;1.40;;;;;;;;;;5011963;28;20111;-49
2021/05/31 11:40:26;;;;;;;4.72;1.33;;;;;;;;;;5013882;28;20037;-49
2021/05/31 11:43:00;;;;;;;4.45;1.40;;;;;;;;;;5007103;28;20030;-48
2021/05/31 11:45:28;;;;;;;2.75;1.15;;;;;;;;;;5006112;28;20072;-48
2021/05/31 11:47:57;;;;;;;4.55;1.10;;;;;;;;;;5011172;28;20085;-51
2021/05/31 11:50:24;;;;;;;2.08;1.38;;;;;;;;;;5024465;28;20413;-48
2021/05/31 11:52:50;;;;;;;14.98;2.13;;;;;;;;;;5009315;28;20183;-46
2021/05/31 11:55:17;;;;;;;2.47;1.13;;;;;;;;;;5004844;28;20037;-52
2021/05/31 11:57:44;;;;;;;5.50;1.42;;;;;;;;;;5011176;28;20022;-49
2021/05/31 12:00:10;;;;;;;4.63;1.27;;;;;;;;;;5018566;28;20485;-49
2021/05/31 12:02:39;;;;;;;4.95;1.40;;;;;;;;;;5012293;28;20149;-50
2021/05/31 12:05:05;;;;;;;3.40;1.20;;;;;;;;;;5011657;28;20462;-49
2021/05/31 12:07:31;;;;;;;4.57;1.52;;;;;;;;;;5014310;28;20424;-47
2021/05/31 12:09:58;;;;;;;5.55;1.35;;;;;;;;;;5005290;28;20136;-47
2021/05/31 12:12:25;;;;;;;3.08;1.05;;;;;;;;;;5007409;28;20025;-47
2021/05/31 12:14:52;;;;;;;1.40;1.00;;;;;;;;;;5008636;28;20057;-46
2021/05/31 12:17:20;;;;;;;3.45;1.58;;;;;;;;;;5013035;28;20060;-46
2021/05/31 12:19:48;;;;;;;2.28;1.10;;;;;;;;;;5006666;28;20030;-47
2021/05/31 12:22:14;;;;;;;2.58;1.05;;;;;;;;;;5010082;28;20030;-48
2021/05/31 12:24:44;;;;;;;4.40;1.10;;;;;;;;;;5006927;28;20022;-46
2021/05/31 12:27:10;;;;;;;3.65;1.40;;;;;;;;;;5006612;28;20037;-47
2021/05/31 12:29:40;;;;;;;3.85;1.17;;;;;;;;;;5015335;28;20444;-47
2021/05/31 12:32:08;;;;;;;3.53;1.20;;;;;;;;;;5006172;28;20045;-47
2021/05/31 12:34:34;;;;;;;3.30;1.15;;;;;;;;;;5007143;28;20021;-47
2021/05/31 12:37:05;;;;;;;3.70;1.38;;;;;;;;;;5009755;28;20036;-49
2021/05/31 12:39:32;;;;;;;1.98;0.90;;;;;;;;;;5018463;28;20829;-47
2021/05/31 12:42:02;;;;;;;4.65;1.20;;;;;;;;;;5014758;28;20030;-47
2021/05/31 12:44:28;;;;;;;5.90;1.40;;;;;;;;;;5004794;28;20057;-46
2021/05/31 12:47:04;;;;;;;2.50;1.38;;;;;;;;;;5010280;28;20418;-50
2021/05/31 12:49:30;;;;;;;4.22;1.02;;;;;;;;;;5011966;28;20029;-47
2021/05/31 12:51:56;;;;;;;5.55;1.63;;;;;;;;;;5017471;28;20022;-48
2021/05/31 12:54:22;;;;;;;2.17;0.90;;;;;;;;;;5014455;28;20033;-48
2021/05/31 12:56:50;;;;;;;3.33;1.05;;;;;;;;;;5013003;28;20525;-47
2021/05/31 12:59:16;;;;;;;2.00;1.00;;;;;;;;;;5009188;28;20109;-48
2021/05/31 13:01:45;;;;;;;3.47;0.90;;;;;;;;;;5015030;28;20533;-47
2021/05/31 13:04:11;;;;;;;2.45;1.20;;;;;;;;;;5002200;28;20048;-47
2021/05/31 13:06:38;;;;;;;2.00;1.05;;;;;;;;;;5004708;28;20037;-49
2021/05/31 13:09:06;;;;;;;3.72;1.17;;;;;;;;;;5019120;28;20561;-49
2021/05/31 13:11:45;;;;;;;1.98;0.93;;;;;;;;;;5014290;28;20029;-50
2021/05/31 13:14:18;;;;;;;5.93;1.10;;;;;;;;;;5014155;28;20408;-47
2021/05/31 13:16:55;;;;;;;2.00;0.98;;;;;;;;;;5009005;28;20029;-48
2021/05/31 13:19:22;;;;;;;2.10;1.10;;;;;;;;;;5008943;28;20429;-48
2021/05/31 13:21:55;;;;;;;2.45;1.17;;;;;;;;;;5020492;28;20037;-47
2021/05/31 13:24:25;;;;;;;3.55;1.10;;;;;;;;;;5025648;28;20160;-49
2021/05/31 13:26:51;;;;;;;2.13;1.20;;;;;;;;;;5011618;28;20030;-48
2021/05/31 13:29:20;;;;;;;2.13;1.00;;;;;;;;;;5011756;28;20045;-49
2021/05/31 13:31:46;;;;;;;1.58;0.80;;;;;;;;;;5012427;28;20049;-47
2021/05/31 13:34:12;;;;;;;4.05;0.98;;;;;;;;;;5015893;28;20033;-47
2021/05/31 13:36:38;;;;;;;4.13;1.33;;;;;;;;;;5018228;28;20029;-47
2021/05/31 13:39:08;;;;;;;2.78;0.90;;;;;;;;;;5017876;28;20034;-50
2021/05/31 13:41:38;;;;;;;4.32;1.00;;;;;;;;;;5015579;28;20665;-48
2021/05/31 13:44:08;;;;;;;3.08;1.00;;;;;;;;;;5009747;28;20588;-49
2021/05/31 13:46:34;;;;;;;1.65;1.05;;;;;;;;;;5011850;28;20021;-50
2021/05/31 13:49:00;;;;;;;2.90;1.13;;;;;;;;;;5010507;28;21024;-48
2021/05/31 13:51:27;;;;;;;4.55;1.02;;;;;;;;;;5010372;28;20160;-47
2021/05/31 13:53:53;;;;;;;1.80;0.70;;;;;;;;;;5017516;28;20473;-53
2021/05/31 13:56:19;;;;;;;2.63;0.80;;;;;;;;;;5019903;28;20026;-50
2021/05/31 13:58:45;;;;;;;2.15;0.70;;;;;;;;;;5023055;28;20441;-51
2021/05/31 14:01:11;;;;;;;2.08;0.73;;;;;;;;;;5004013;28;20030;-48
2021/05/31 14:03:37;;;;;;;4.55;1.33;;;;;;;;;;5012154;28;20033;-48
2021/05/31 14:06:03;;;;;;;0.85;0.50;;;;;;;;;;5011448;28;20116;-49
2021/05/31 14:08:29;;;;;;;2.33;0.57;;;;;;;;;;5025374;28;20037;-50
2021/05/31 14:10:55;;;;;;;1.77;0.52;;;;;;;;;;5017497;28;20029;-53
2021/05/31 14:13:21;;;;;;;1.15;0.75;;;;;;;;;;5013958;28;20104;-52
2021/05/31 14:15:47;;;;;;;1.92;0.57;;;;;;;;;;5017541;28;20096;-52
2021/05/31 14:18:13;;;;;;;1.23;0.50;;;;;;;;;;5014756;28;20536;-52
2021/05/31 14:20:39;;;;;;;2.47;0.60;;;;;;;;;;5017953;28;20029;-53
2021/05/31 14:23:06;;;;;;;6.35;0.77;;;;;;;;;;5013794;28;20409;-52
2021/05/31 14:25:33;;;;;;;1.17;0.55;;;;;;;;;;5012936;28;20069;-50
2021/05/31 14:28:00;;;;;;;3.22;0.55;;;;;;;;;;5006115;28;20446;-51
2021/05/31 14:30:27;;;;;;;2.03;0.50;;;;;;;;;;5021251;28;20116;-51
2021/05/31 14:32:56;;;;;;;1.55;0.60;;;;;;;;;;5023435;28;20042;-49
2021/05/31 14:35:22;;;;;;;1.77;0.55;;;;;;;;;;5012588;28;20462;-52
2021/05/31 14:37:48;;;;;;;0.52;0.35;;;;;;;;;;5014779;28;20029;-50
2021/05/31 14:40:14;;;;;;;2.10;0.60;;;;;;;;;;5019191;28;20025;-51
2021/05/31 14:42:40;;;;;;;3.22;0.40;;;;;;;;;;5013765;28;20034;-53
2021/05/31 14:45:07;;;;;;;1.30;0.70;;;;;;;;;;5011414;28;20022;-50
2021/05/31 14:47:33;;;;;;;0.90;0.70;;;;;;;;;;5010764;28;20029;-52
2021/05/31 14:49:59;;;;;;;1.25;0.52;;;;;;;;;;5020803;28;20033;-50
2021/05/31 14:52:31;;;;;;;2.90;0.80;;;;;;;;;;5010405;28;20113;-48